sensor_id;sensor_type;location;lat;lon;timestamp;P1;durP1;ratioP1;P2;durP2;ratioP2
67508;SDS011;54354;44.724;11.284;2023-04-03T00:01:27;10.77;;;9.68;;
67508;SDS011;54354;44.724;11.284;2023-04-03T00:03:53;12.05;;;9.05;;
67508;SDS011;54354;44.724;11.284;2023-04-03T00:06:18;10.02;;;9.02;;
67508;SDS011;54354;44.724;11.284;2023-04-03T00:08:44;10.73;;;7.97;;
67508;SDS011;54354;44.724;11.284;2023-04-03T00:11:10;9.05;;;8.15;;
67508;SDS011;54354;44.724;11.284;2023-04-03T00:13:35;8.63;;;7.70;;
67508;SDS011;54354;44.724;11.284;2023-04-03T00:16:01;7.93;;;7.13;;
67508;SDS011;54354;44.724;11.284;2023-04-03T00:18:28;9.10;;;7.72;;
67508;SDS011;54354;44.724;11.284;2023-04-03T00:20:54;8.43;;;7.63;;
67508;SDS011;54354;44.724;11.284;2023-04-03T00:23:20;7.88;;;7.18;;
67508;SDS011;54354;44.724;11.284;2023-04-03T00:25:46;8.75;;;7.63;;
67508;SDS011;54354;44.724;11.284;2023-04-03T00:28:11;7.57;;;6.93;;
67508;SDS011;54354;44.724;11.284;2023-04-03T00:30:37;7.93;;;7.13;;
67508;SDS011;54354;44.724;11.284;2023-04-03T00:33:02;8.07;;;6.95;;
67508;SDS011;54354;44.724;11.284;2023-04-03T00:35:28;7.72;;;6.90;;
67508;SDS011;54354;44.724;11.284;2023-04-03T00:37:54;7.90;;;7.05;;
67508;SDS011;54354;44.724;11.284;2023-04-03T00:40:21;8.57;;;7.70;;
67508;SDS011;54354;44.724;11.284;2023-04-03T00:42:51;7.88;;;7.18;;
67508;SDS011;54354;44.724;11.284;2023-04-03T00:45:32;9.02;;;6.78;;
67508;SDS011;54354;44.724;11.284;2023-04-03T00:48:00;8.00;;;7.30;;
67508;SDS011;54354;44.724;11.284;2023-04-03T00:50:28;8.15;;;7.35;;
67508;SDS011;54354;44.724;11.284;2023-04-03T00:52:55;8.07;;;7.30;;
67508;SDS011;54354;44.724;11.284;2023-04-03T00:55:21;7.82;;;7.15;;
67508;SDS011;54354;44.724;11.284;2023-04-03T00:57:48;7.93;;;7.13;;
67508;SDS011;54354;44.724;11.284;2023-04-03T01:00:15;7.10;;;6.50;;
67508;SDS011;54354;44.724;11.284;2023-04-03T01:02:43;7.18;;;6.57;;
67508;SDS011;54354;44.724;11.284;2023-04-03T01:05:12;7.50;;;6.40;;
67508;SDS011;54354;44.724;11.284;2023-04-03T01:07:40;8.63;;;6.78;;
67508;SDS011;54354;44.724;11.284;2023-04-03T01:10:07;7.45;;;6.47;;
67508;SDS011;54354;44.724;11.284;2023-04-03T01:12:38;6.53;;;5.88;;
67508;SDS011;54354;44.724;11.284;2023-04-03T01:15:09;7.00;;;6.18;;
67508;SDS011;54354;44.724;11.284;2023-04-03T01:17:42;7.28;;;6.68;;
67508;SDS011;54354;44.724;11.284;2023-04-03T01:25:31;8.38;;;7.45;;
67508;SDS011;54354;44.724;11.284;2023-04-03T01:27:58;8.27;;;7.20;;
67508;SDS011;54354;44.724;11.284;2023-04-03T01:30:25;8.02;;;7.22;;
67508;SDS011;54354;44.724;11.284;2023-04-03T01:32:56;7.72;;;7.03;;
67508;SDS011;54354;44.724;11.284;2023-04-03T01:35:23;8.07;;;7.28;;
67508;SDS011;54354;44.724;11.284;2023-04-03T01:37:48;8.25;;;7.45;;
67508;SDS011;54354;44.724;11.284;2023-04-03T01:40:14;8.30;;;7.28;;
67508;SDS011;54354;44.724;11.284;2023-04-03T01:42:39;11.25;;;8.23;;
67508;SDS011;54354;44.724;11.284;2023-04-03T01:45:05;9.10;;;8.20;;
67508;SDS011;54354;44.724;11.284;2023-04-03T01:47:30;8.50;;;7.70;;
67508;SDS011;54354;44.724;11.284;2023-04-03T01:49:56;8.63;;;7.82;;
67508;SDS011;54354;44.724;11.284;2023-04-03T01:52:22;9.95;;;7.40;;
67508;SDS011;54354;44.724;11.284;2023-04-03T01:54:50;8.88;;;8.05;;
67508;SDS011;54354;44.724;11.284;2023-04-03T01:57:15;8.82;;;7.95;;
67508;SDS011;54354;44.724;11.284;2023-04-03T01:59:42;9.50;;;8.13;;
67508;SDS011;54354;44.724;11.284;2023-04-03T02:02:08;9.02;;;8.02;;
67508;SDS011;54354;44.724;11.284;2023-04-03T02:04:35;8.25;;;7.55;;
67508;SDS011;54354;44.724;11.284;2023-04-03T02:07:00;8.90;;;8.00;;
67508;SDS011;54354;44.724;11.284;2023-04-03T02:09:26;8.50;;;7.72;;
67508;SDS011;54354;44.724;11.284;2023-04-03T02:11:52;9.02;;;8.13;;
67508;SDS011;54354;44.724;11.284;2023-04-03T02:14:18;8.80;;;7.90;;
67508;SDS011;54354;44.724;11.284;2023-04-03T02:16:44;13.48;;;9.48;;
67508;SDS011;54354;44.724;11.284;2023-04-03T02:19:10;9.35;;;8.45;;
67508;SDS011;54354;44.724;11.284;2023-04-03T02:21:35;9.18;;;8.20;;
67508;SDS011;54354;44.724;11.284;2023-04-03T02:24:01;9.02;;;8.13;;
67508;SDS011;54354;44.724;11.284;2023-04-03T02:26:26;9.82;;;8.93;;
67508;SDS011;54354;44.724;11.284;2023-04-03T02:28:52;10.00;;;8.50;;
67508;SDS011;54354;44.724;11.284;2023-04-03T02:31:17;9.45;;;8.55;;
67508;SDS011;54354;44.724;11.284;2023-04-03T02:33:45;8.82;;;8.10;;
67508;SDS011;54354;44.724;11.284;2023-04-03T02:36:13;9.40;;;8.48;;
67508;SDS011;54354;44.724;11.284;2023-04-03T02:38:41;9.15;;;8.20;;
67508;SDS011;54354;44.724;11.284;2023-04-03T02:41:09;9.27;;;8.48;;
67508;SDS011;54354;44.724;11.284;2023-04-03T02:43:36;10.35;;;9.30;;
67508;SDS011;54354;44.724;11.284;2023-04-03T02:46:03;10.50;;;9.50;;
67508;SDS011;54354;44.724;11.284;2023-04-03T02:48:30;12.07;;;9.15;;
67508;SDS011;54354;44.724;11.284;2023-04-03T02:50:56;9.45;;;8.48;;
67508;SDS011;54354;44.724;11.284;2023-04-03T02:53:21;8.82;;;8.13;;
67508;SDS011;54354;44.724;11.284;2023-04-03T02:55:48;9.07;;;8.38;;
67508;SDS011;54354;44.724;11.284;2023-04-03T02:58:14;9.50;;;8.50;;
67508;SDS011;54354;44.724;11.284;2023-04-03T03:00:40;9.13;;;8.23;;
67508;SDS011;54354;44.724;11.284;2023-04-03T03:03:05;10.40;;;9.40;;
67508;SDS011;54354;44.724;11.284;2023-04-03T03:05:31;10.82;;;8.90;;
67508;SDS011;54354;44.724;11.284;2023-04-03T03:07:57;9.52;;;8.73;;
67508;SDS011;54354;44.724;11.284;2023-04-03T03:10:22;9.50;;;8.30;;
67508;SDS011;54354;44.724;11.284;2023-04-03T03:12:48;9.98;;;8.85;;
67508;SDS011;54354;44.724;11.284;2023-04-03T03:15:14;8.23;;;7.45;;
67508;SDS011;54354;44.724;11.284;2023-04-03T03:17:40;9.45;;;8.00;;
67508;SDS011;54354;44.724;11.284;2023-04-03T03:20:06;8.45;;;7.63;;
67508;SDS011;54354;44.724;11.284;2023-04-03T03:22:33;7.68;;;6.93;;
67508;SDS011;54354;44.724;11.284;2023-04-03T03:24:59;9.63;;;6.57;;
67508;SDS011;54354;44.724;11.284;2023-04-03T03:27:24;7.88;;;7.18;;
67508;SDS011;54354;44.724;11.284;2023-04-03T03:29:50;7.10;;;6.57;;
67508;SDS011;54354;44.724;11.284;2023-04-03T03:32:16;8.43;;;6.93;;
67508;SDS011;54354;44.724;11.284;2023-04-03T03:34:41;7.50;;;6.68;;
67508;SDS011;54354;44.724;11.284;2023-04-03T03:37:07;7.32;;;6.70;;
67508;SDS011;54354;44.724;11.284;2023-04-03T03:39:33;8.63;;;6.90;;
67508;SDS011;54354;44.724;11.284;2023-04-03T03:41:58;10.48;;;7.45;;
67508;SDS011;54354;44.724;11.284;2023-04-03T03:44:24;7.68;;;7.00;;
67508;SDS011;54354;44.724;11.284;2023-04-03T03:46:49;8.40;;;7.20;;
67508;SDS011;54354;44.724;11.284;2023-04-03T03:49:15;7.80;;;7.10;;
67508;SDS011;54354;44.724;11.284;2023-04-03T03:51:41;10.35;;;7.00;;
67508;SDS011;54354;44.724;11.284;2023-04-03T03:54:07;8.27;;;7.57;;
67508;SDS011;54354;44.724;11.284;2023-04-03T03:56:33;8.88;;;8.00;;
67508;SDS011;54354;44.724;11.284;2023-04-03T03:58:59;9.23;;;8.27;;
67508;SDS011;54354;44.724;11.284;2023-04-03T04:01:25;9.43;;;8.52;;
67508;SDS011;54354;44.724;11.284;2023-04-03T04:03:51;9.63;;;8.73;;
67508;SDS011;54354;44.724;11.284;2023-04-03T04:06:22;10.02;;;9.02;;
67508;SDS011;54354;44.724;11.284;2023-04-03T04:08:48;10.07;;;9.10;;
67508;SDS011;54354;44.724;11.284;2023-04-03T04:11:14;10.40;;;9.23;;
67508;SDS011;54354;44.724;11.284;2023-04-03T04:13:41;10.55;;;9.10;;
67508;SDS011;54354;44.724;11.284;2023-04-03T04:16:09;12.10;;;9.27;;
67508;SDS011;54354;44.724;11.284;2023-04-03T04:18:35;12.02;;;10.20;;
67508;SDS011;54354;44.724;11.284;2023-04-03T04:21:00;12.00;;;9.60;;
67508;SDS011;54354;44.724;11.284;2023-04-03T04:23:26;12.02;;;10.00;;
67508;SDS011;54354;44.724;11.284;2023-04-03T04:25:52;9.52;;;8.73;;
67508;SDS011;54354;44.724;11.284;2023-04-03T04:28:18;10.20;;;9.05;;
67508;SDS011;54354;44.724;11.284;2023-04-03T04:30:46;10.45;;;9.40;;
67508;SDS011;54354;44.724;11.284;2023-04-03T04:33:13;10.18;;;9.10;;
67508;SDS011;54354;44.724;11.284;2023-04-03T04:35:41;10.63;;;9.55;;
67508;SDS011;54354;44.724;11.284;2023-04-03T04:38:08;9.88;;;8.93;;
67508;SDS011;54354;44.724;11.284;2023-04-03T04:40:34;10.65;;;9.57;;
67508;SDS011;54354;44.724;11.284;2023-04-03T04:43:01;10.20;;;9.30;;
67508;SDS011;54354;44.724;11.284;2023-04-03T04:45:26;10.52;;;9.35;;
67508;SDS011;54354;44.724;11.284;2023-04-03T04:47:54;12.38;;;9.60;;
67508;SDS011;54354;44.724;11.284;2023-04-03T04:50:22;11.98;;;9.63;;
67508;SDS011;54354;44.724;11.284;2023-04-03T04:52:48;11.07;;;9.98;;
67508;SDS011;54354;44.724;11.284;2023-04-03T04:55:14;12.73;;;9.48;;
67508;SDS011;54354;44.724;11.284;2023-04-03T04:57:40;11.43;;;9.55;;
67508;SDS011;54354;44.724;11.284;2023-04-03T05:00:06;12.02;;;9.68;;
67508;SDS011;54354;44.724;11.284;2023-04-03T05:02:33;14.57;;;9.98;;
67508;SDS011;54354;44.724;11.284;2023-04-03T05:04:58;11.98;;;9.55;;
67508;SDS011;54354;44.724;11.284;2023-04-03T05:07:30;12.10;;;9.18;;
67508;SDS011;54354;44.724;11.284;2023-04-03T05:09:57;13.75;;;9.13;;
67508;SDS011;54354;44.724;11.284;2023-04-03T05:12:23;11.70;;;9.63;;
67508;SDS011;54354;44.724;11.284;2023-04-03T05:14:54;13.10;;;10.35;;
67508;SDS011;54354;44.724;11.284;2023-04-03T05:17:20;10.32;;;9.35;;
67508;SDS011;54354;44.724;11.284;2023-04-03T05:19:49;11.70;;;10.43;;
67508;SDS011;54354;44.724;11.284;2023-04-03T05:22:16;10.82;;;9.73;;
67508;SDS011;54354;44.724;11.284;2023-04-03T05:24:42;12.50;;;10.80;;
67508;SDS011;54354;44.724;11.284;2023-04-03T05:27:08;16.90;;;10.38;;
67508;SDS011;54354;44.724;11.284;2023-04-03T05:29:37;11.77;;;9.88;;
67508;SDS011;54354;44.724;11.284;2023-04-03T05:32:04;11.30;;;10.20;;
67508;SDS011;54354;44.724;11.284;2023-04-03T05:34:29;11.18;;;9.95;;
67508;SDS011;54354;44.724;11.284;2023-04-03T05:36:55;10.90;;;9.80;;
67508;SDS011;54354;44.724;11.284;2023-04-03T05:39:21;11.63;;;9.82;;
67508;SDS011;54354;44.724;11.284;2023-04-03T05:41:48;10.50;;;9.50;;
67508;SDS011;54354;44.724;11.284;2023-04-03T05:44:13;14.60;;;9.57;;
67508;SDS011;54354;44.724;11.284;2023-04-03T05:46:42;11.65;;;10.45;;
67508;SDS011;54354;44.724;11.284;2023-04-03T05:49:08;13.50;;;10.63;;
67508;SDS011;54354;44.724;11.284;2023-04-03T05:51:36;11.93;;;10.60;;
67508;SDS011;54354;44.724;11.284;2023-04-03T05:54:25;12.55;;;11.35;;
67508;SDS011;54354;44.724;11.284;2023-04-03T05:56:56;17.33;;;12.32;;
67508;SDS011;54354;44.724;11.284;2023-04-03T05:59:23;17.73;;;12.88;;
67508;SDS011;54354;44.724;11.284;2023-04-03T06:01:51;13.70;;;12.20;;
67508;SDS011;54354;44.724;11.284;2023-04-03T06:04:18;15.63;;;13.20;;
67508;SDS011;54354;44.724;11.284;2023-04-03T06:06:45;17.88;;;13.60;;
67508;SDS011;54354;44.724;11.284;2023-04-03T06:09:12;21.85;;;13.25;;
67508;SDS011;54354;44.724;11.284;2023-04-03T06:11:39;17.25;;;13.88;;
67508;SDS011;54354;44.724;11.284;2023-04-03T06:14:05;16.55;;;13.23;;
67508;SDS011;54354;44.724;11.284;2023-04-03T06:16:31;17.67;;;13.80;;
67508;SDS011;54354;44.724;11.284;2023-04-03T06:18:58;14.48;;;13.07;;
67508;SDS011;54354;44.724;11.284;2023-04-03T06:21:23;17.77;;;13.70;;
67508;SDS011;54354;44.724;11.284;2023-04-03T06:23:49;15.48;;;13.73;;
67508;SDS011;54354;44.724;11.284;2023-04-03T06:26:16;21.80;;;12.80;;
67508;SDS011;54354;44.724;11.284;2023-04-03T06:28:42;15.38;;;12.30;;
67508;SDS011;54354;44.724;11.284;2023-04-03T06:31:07;13.98;;;11.93;;
67508;SDS011;54354;44.724;11.284;2023-04-03T06:33:34;13.77;;;12.38;;
67508;SDS011;54354;44.724;11.284;2023-04-03T06:36:00;16.80;;;12.38;;
67508;SDS011;54354;44.724;11.284;2023-04-03T06:38:28;14.63;;;12.05;;
67508;SDS011;54354;44.724;11.284;2023-04-03T06:40:54;12.50;;;11.25;;
67508;SDS011;54354;44.724;11.284;2023-04-03T06:43:21;12.02;;;10.73;;
67508;SDS011;54354;44.724;11.284;2023-04-03T06:45:48;10.70;;;9.70;;
67508;SDS011;54354;44.724;11.284;2023-04-03T06:48:14;11.63;;;9.85;;
67508;SDS011;54354;44.724;11.284;2023-04-03T06:50:39;10.00;;;9.00;;
67508;SDS011;54354;44.724;11.284;2023-04-03T06:53:05;10.48;;;8.75;;
67508;SDS011;54354;44.724;11.284;2023-04-03T06:55:31;9.93;;;9.00;;
67508;SDS011;54354;44.724;11.284;2023-04-03T06:57:57;8.18;;;7.38;;
67508;SDS011;54354;44.724;11.284;2023-04-03T07:00:22;9.52;;;8.63;;
67508;SDS011;54354;44.724;11.284;2023-04-03T07:02:48;8.93;;;8.02;;
67508;SDS011;54354;44.724;11.284;2023-04-03T07:05:13;8.93;;;7.80;;
67508;SDS011;54354;44.724;11.284;2023-04-03T07:07:39;7.35;;;6.70;;
67508;SDS011;54354;44.724;11.284;2023-04-03T07:10:07;7.90;;;6.82;;
67508;SDS011;54354;44.724;11.284;2023-04-03T07:12:33;7.45;;;6.75;;
67508;SDS011;54354;44.724;11.284;2023-04-03T07:14:58;7.57;;;6.03;;
67508;SDS011;54354;44.724;11.284;2023-04-03T07:17:24;10.52;;;6.90;;
67508;SDS011;54354;44.724;11.284;2023-04-03T07:19:51;7.07;;;6.43;;
67508;SDS011;54354;44.724;11.284;2023-04-03T07:22:16;6.78;;;5.95;;
67508;SDS011;54354;44.724;11.284;2023-04-03T07:24:43;6.97;;;5.90;;
67508;SDS011;54354;44.724;11.284;2023-04-03T07:27:08;6.32;;;5.28;;
67508;SDS011;54354;44.724;11.284;2023-04-03T07:29:34;7.38;;;5.85;;
67508;SDS011;54354;44.724;11.284;2023-04-03T07:32:00;7.07;;;5.05;;
67508;SDS011;54354;44.724;11.284;2023-04-03T07:34:27;5.57;;;5.10;;
67508;SDS011;54354;44.724;11.284;2023-04-03T07:36:52;6.18;;;5.05;;
67508;SDS011;54354;44.724;11.284;2023-04-03T07:39:18;5.38;;;4.85;;
67508;SDS011;54354;44.724;11.284;2023-04-03T07:41:44;5.28;;;4.78;;
67508;SDS011;54354;44.724;11.284;2023-04-03T07:44:09;6.53;;;5.28;;
67508;SDS011;54354;44.724;11.284;2023-04-03T07:46:35;7.57;;;5.82;;
67508;SDS011;54354;44.724;11.284;2023-04-03T07:49:02;8.05;;;5.38;;
67508;SDS011;54354;44.724;11.284;2023-04-03T07:51:27;7.68;;;4.95;;
67508;SDS011;54354;44.724;11.284;2023-04-03T07:53:54;6.28;;;5.35;;
67508;SDS011;54354;44.724;11.284;2023-04-03T07:56:20;6.82;;;5.80;;
67508;SDS011;54354;44.724;11.284;2023-04-03T07:58:46;5.70;;;4.50;;
67508;SDS011;54354;44.724;11.284;2023-04-03T08:01:12;6.45;;;4.90;;
67508;SDS011;54354;44.724;11.284;2023-04-03T08:03:38;6.60;;;4.20;;
67508;SDS011;54354;44.724;11.284;2023-04-03T08:06:05;5.72;;;4.05;;
67508;SDS011;54354;44.724;11.284;2023-04-03T08:08:32;6.25;;;4.10;;
67508;SDS011;54354;44.724;11.284;2023-04-03T08:10:58;5.22;;;3.88;;
67508;SDS011;54354;44.724;11.284;2023-04-03T08:13:25;5.70;;;3.40;;
67508;SDS011;54354;44.724;11.284;2023-04-03T08:15:51;5.70;;;3.33;;
67508;SDS011;54354;44.724;11.284;2023-04-03T08:18:17;4.38;;;2.92;;
67508;SDS011;54354;44.724;11.284;2023-04-03T08:20:46;6.85;;;3.50;;
67508;SDS011;54354;44.724;11.284;2023-04-03T08:23:12;6.43;;;3.10;;
67508;SDS011;54354;44.724;11.284;2023-04-03T08:25:38;4.55;;;2.90;;
67508;SDS011;54354;44.724;11.284;2023-04-03T08:28:05;5.13;;;2.83;;
67508;SDS011;54354;44.724;11.284;2023-04-03T08:30:31;6.57;;;3.20;;
67508;SDS011;54354;44.724;11.284;2023-04-03T08:32:59;6.57;;;3.20;;
67508;SDS011;54354;44.724;11.284;2023-04-03T08:35:27;7.85;;;3.75;;
67508;SDS011;54354;44.724;11.284;2023-04-03T08:37:53;6.60;;;3.08;;
67508;SDS011;54354;44.724;11.284;2023-04-03T08:40:18;4.57;;;2.97;;
67508;SDS011;54354;44.724;11.284;2023-04-03T08:42:47;4.75;;;2.80;;
67508;SDS011;54354;44.724;11.284;2023-04-03T08:48:07;6.30;;;2.53;;
67508;SDS011;54354;44.724;11.284;2023-04-03T08:50:40;3.95;;;2.47;;
67508;SDS011;54354;44.724;11.284;2023-04-03T08:53:15;6.30;;;2.47;;
67508;SDS011;54354;44.724;11.284;2023-04-03T08:55:48;4.90;;;2.65;;
67508;SDS011;54354;44.724;11.284;2023-04-03T08:58:16;3.60;;;2.40;;
67508;SDS011;54354;44.724;11.284;2023-04-03T09:00:51;4.35;;;2.50;;
67508;SDS011;54354;44.724;11.284;2023-04-03T09:03:22;4.47;;;2.30;;
67508;SDS011;54354;44.724;11.284;2023-04-03T09:10:48;3.40;;;1.88;;
67508;SDS011;54354;44.724;11.284;2023-04-03T09:15:45;3.25;;;0.70;;
67508;SDS011;54354;44.724;11.284;2023-04-03T09:20:56;3.13;;;0.80;;
67508;SDS011;54354;44.724;11.284;2023-04-03T09:23:47;5.22;;;0.70;;
67508;SDS011;54354;44.724;11.284;2023-04-03T09:26:21;2.10;;;0.70;;
67508;SDS011;54354;44.724;11.284;2023-04-03T09:28:58;4.57;;;0.68;;
67508;SDS011;54354;44.724;11.284;2023-04-03T09:31:27;1.77;;;0.70;;
67508;SDS011;54354;44.724;11.284;2023-04-03T09:33:57;2.58;;;0.70;;
67508;SDS011;54354;44.724;11.284;2023-04-03T09:39:31;2.03;;;0.60;;
67508;SDS011;54354;44.724;11.284;2023-04-03T09:42:22;4.93;;;0.80;;
67508;SDS011;54354;44.724;11.284;2023-04-03T09:45:03;2.60;;;0.88;;
67508;SDS011;54354;44.724;11.284;2023-04-03T09:47:34;3.72;;;0.70;;
67508;SDS011;54354;44.724;11.284;2023-04-03T09:52:43;1.35;;;0.68;;
67508;SDS011;54354;44.724;11.284;2023-04-03T09:55:14;4.95;;;1.50;;
67508;SDS011;54354;44.724;11.284;2023-04-03T09:57:40;6.00;;;1.90;;
67508;SDS011;54354;44.724;11.284;2023-04-03T10:00:06;3.22;;;1.80;;
67508;SDS011;54354;44.724;11.284;2023-04-03T10:02:49;4.53;;;1.88;;
67508;SDS011;54354;44.724;11.284;2023-04-03T10:05:32;2.80;;;2.20;;
67508;SDS011;54354;44.724;11.284;2023-04-03T10:10:39;4.90;;;2.40;;
67508;SDS011;54354;44.724;11.284;2023-04-03T10:13:09;3.13;;;2.60;;
67508;SDS011;54354;44.724;11.284;2023-04-03T10:15:44;5.57;;;2.30;;
67508;SDS011;54354;44.724;11.284;2023-04-03T10:20:47;2.67;;;1.77;;
67508;SDS011;54354;44.724;11.284;2023-04-03T10:23:22;4.70;;;2.70;;
67508;SDS011;54354;44.724;11.284;2023-04-03T10:34:40;7.13;;;2.70;;
67508;SDS011;54354;44.724;11.284;2023-04-03T10:37:25;7.17;;;2.60;;
67508;SDS011;54354;44.724;11.284;2023-04-03T10:42:54;6.53;;;4.30;;
67508;SDS011;54354;44.724;11.284;2023-04-03T10:51:03;6.15;;;2.67;;
67508;SDS011;54354;44.724;11.284;2023-04-03T10:54:13;5.10;;;3.30;;
67508;SDS011;54354;44.724;11.284;2023-04-03T10:56:37;5.28;;;2.80;;
67508;SDS011;54354;44.724;11.284;2023-04-03T11:02:04;7.80;;;3.17;;
67508;SDS011;54354;44.724;11.284;2023-04-03T11:04:42;13.98;;;3.33;;
67508;SDS011;54354;44.724;11.284;2023-04-03T11:07:33;7.80;;;3.15;;
67508;SDS011;54354;44.724;11.284;2023-04-03T11:15:13;3.72;;;1.95;;
67508;SDS011;54354;44.724;11.284;2023-04-03T11:17:43;4.05;;;1.52;;
67508;SDS011;54354;44.724;11.284;2023-04-03T11:20:23;3.65;;;1.60;;
67508;SDS011;54354;44.724;11.284;2023-04-03T11:25:24;6.00;;;1.48;;
67508;SDS011;54354;44.724;11.284;2023-04-03T11:27:54;8.52;;;1.77;;
67508;SDS011;54354;44.724;11.284;2023-04-03T11:33:31;3.22;;;1.50;;
67508;SDS011;54354;44.724;11.284;2023-04-03T11:36:21;4.50;;;1.60;;
67508;SDS011;54354;44.724;11.284;2023-04-03T11:38:45;6.38;;;1.38;;
67508;SDS011;54354;44.724;11.284;2023-04-03T11:41:13;6.35;;;1.35;;
67508;SDS011;54354;44.724;11.284;2023-04-03T11:46:21;4.65;;;1.20;;
67508;SDS011;54354;44.724;11.284;2023-04-03T11:48:48;4.28;;;1.30;;
67508;SDS011;54354;44.724;11.284;2023-04-03T11:56:32;3.88;;;1.45;;
67508;SDS011;54354;44.724;11.284;2023-04-03T12:01:51;5.35;;;1.40;;
67508;SDS011;54354;44.724;11.284;2023-04-03T12:04:19;7.07;;;1.50;;
67508;SDS011;54354;44.724;11.284;2023-04-03T12:09:25;4.00;;;1.27;;
67508;SDS011;54354;44.724;11.284;2023-04-03T12:11:51;3.58;;;1.23;;
67508;SDS011;54354;44.724;11.284;2023-04-03T12:14:17;2.35;;;1.10;;
67508;SDS011;54354;44.724;11.284;2023-04-03T12:16:44;9.07;;;1.42;;
67508;SDS011;54354;44.724;11.284;2023-04-03T12:37:34;2.05;;;0.70;;
67508;SDS011;54354;44.724;11.284;2023-04-03T12:45:51;6.07;;;0.60;;
67508;SDS011;54354;44.724;11.284;2023-04-03T12:48:27;2.65;;;0.60;;
67508;SDS011;54354;44.724;11.284;2023-04-03T12:50:55;5.63;;;0.60;;
67508;SDS011;54354;44.724;11.284;2023-04-03T12:53:26;6.85;;;0.70;;
67508;SDS011;54354;44.724;11.284;2023-04-03T12:55:55;3.88;;;0.60;;
67508;SDS011;54354;44.724;11.284;2023-04-03T12:58:26;5.25;;;0.77;;
67508;SDS011;54354;44.724;11.284;2023-04-03T13:03:25;2.88;;;0.77;;
67508;SDS011;54354;44.724;11.284;2023-04-03T13:05:53;3.90;;;0.80;;
67508;SDS011;54354;44.724;11.284;2023-04-03T13:08:22;3.72;;;0.70;;
67508;SDS011;54354;44.724;11.284;2023-04-03T13:13:31;1.60;;;0.70;;
67508;SDS011;54354;44.724;11.284;2023-04-03T13:15:57;23.98;;;1.17;;
67508;SDS011;54354;44.724;11.284;2023-04-03T13:18:33;2.80;;;0.80;;
67508;SDS011;54354;44.724;11.284;2023-04-03T13:23:34;2.38;;;0.70;;
67508;SDS011;54354;44.724;11.284;2023-04-03T13:26:02;4.15;;;0.80;;
67508;SDS011;54354;44.724;11.284;2023-04-03T13:28:29;2.22;;;0.65;;
67508;SDS011;54354;44.724;11.284;2023-04-03T13:33:33;3.22;;;1.00;;
67508;SDS011;54354;44.724;11.284;2023-04-03T13:36:19;1.05;;;0.60;;
67508;SDS011;54354;44.724;11.284;2023-04-03T13:38:56;3.05;;;0.70;;
67508;SDS011;54354;44.724;11.284;2023-04-03T13:41:50;2.63;;;0.80;;
67508;SDS011;54354;44.724;11.284;2023-04-03T13:46:46;2.88;;;0.80;;
67508;SDS011;54354;44.724;11.284;2023-04-03T13:51:51;2.42;;;0.90;;
67508;SDS011;54354;44.724;11.284;2023-04-03T13:54:39;3.53;;;1.13;;
67508;SDS011;54354;44.724;11.284;2023-04-03T13:57:10;4.65;;;0.80;;
67508;SDS011;54354;44.724;11.284;2023-04-03T13:59:42;1.80;;;0.70;;
67508;SDS011;54354;44.724;11.284;2023-04-03T14:02:16;4.40;;;0.65;;
67508;SDS011;54354;44.724;11.284;2023-04-03T14:07:18;2.42;;;0.57;;
67508;SDS011;54354;44.724;11.284;2023-04-03T14:09:45;4.97;;;0.90;;
67508;SDS011;54354;44.724;11.284;2023-04-03T14:12:15;4.63;;;0.80;;
67508;SDS011;54354;44.724;11.284;2023-04-03T14:14:46;2.67;;;0.80;;
67508;SDS011;54354;44.724;11.284;2023-04-03T14:17:16;2.90;;;1.00;;
67508;SDS011;54354;44.724;11.284;2023-04-03T14:19:45;2.35;;;0.90;;
67508;SDS011;54354;44.724;11.284;2023-04-03T14:22:19;2.72;;;0.90;;
67508;SDS011;54354;44.724;11.284;2023-04-03T14:24:48;2.85;;;0.95;;
67508;SDS011;54354;44.724;11.284;2023-04-03T14:27:17;3.42;;;0.98;;
67508;SDS011;54354;44.724;11.284;2023-04-03T14:29:47;4.15;;;0.77;;
67508;SDS011;54354;44.724;11.284;2023-04-03T14:32:14;2.70;;;0.95;;
67508;SDS011;54354;44.724;11.284;2023-04-03T14:34:42;2.30;;;0.80;;
67508;SDS011;54354;44.724;11.284;2023-04-03T14:37:14;3.90;;;1.02;;
67508;SDS011;54354;44.724;11.284;2023-04-03T14:39:43;1.67;;;1.00;;
67508;SDS011;54354;44.724;11.284;2023-04-03T14:42:11;3.80;;;0.90;;
67508;SDS011;54354;44.724;11.284;2023-04-03T14:44:42;2.22;;;0.90;;
67508;SDS011;54354;44.724;11.284;2023-04-03T14:47:11;4.18;;;1.05;;
67508;SDS011;54354;44.724;11.284;2023-04-03T14:49:39;4.40;;;0.80;;
67508;SDS011;54354;44.724;11.284;2023-04-03T14:52:05;2.40;;;0.80;;
67508;SDS011;54354;44.724;11.284;2023-04-03T14:54:31;3.28;;;0.70;;
67508;SDS011;54354;44.724;11.284;2023-04-03T14:56:59;2.78;;;0.75;;
67508;SDS011;54354;44.724;11.284;2023-04-03T14:59:25;2.70;;;0.75;;
67508;SDS011;54354;44.724;11.284;2023-04-03T15:01:52;2.90;;;0.60;;
67508;SDS011;54354;44.724;11.284;2023-04-03T15:04:19;2.75;;;0.60;;
67508;SDS011;54354;44.724;11.284;2023-04-03T15:06:50;4.13;;;0.75;;
67508;SDS011;54354;44.724;11.284;2023-04-03T15:09:26;2.03;;;0.75;;
67508;SDS011;54354;44.724;11.284;2023-04-03T15:11:53;4.70;;;0.60;;
67508;SDS011;54354;44.724;11.284;2023-04-03T15:14:20;2.08;;;0.70;;
67508;SDS011;54354;44.724;11.284;2023-04-03T15:16:48;3.88;;;0.80;;
67508;SDS011;54354;44.724;11.284;2023-04-03T15:19:14;8.07;;;1.00;;
67508;SDS011;54354;44.724;11.284;2023-04-03T15:21:39;5.15;;;0.80;;
67508;SDS011;54354;44.724;11.284;2023-04-03T15:24:05;1.42;;;0.77;;
67508;SDS011;54354;44.724;11.284;2023-04-03T15:26:31;1.33;;;0.63;;
67508;SDS011;54354;44.724;11.284;2023-04-03T15:28:57;2.83;;;0.70;;
67508;SDS011;54354;44.724;11.284;2023-04-03T15:31:23;3.20;;;0.70;;
67508;SDS011;54354;44.724;11.284;2023-04-03T15:33:49;3.50;;;0.70;;
67508;SDS011;54354;44.724;11.284;2023-04-03T15:36:15;2.45;;;0.70;;
67508;SDS011;54354;44.724;11.284;2023-04-03T15:38:40;4.10;;;0.75;;
67508;SDS011;54354;44.724;11.284;2023-04-03T15:41:06;3.42;;;0.80;;
67508;SDS011;54354;44.724;11.284;2023-04-03T15:43:32;3.40;;;0.85;;
67508;SDS011;54354;44.724;11.284;2023-04-03T15:45:58;1.40;;;0.70;;
67508;SDS011;54354;44.724;11.284;2023-04-03T15:48:25;3.83;;;0.80;;
67508;SDS011;54354;44.724;11.284;2023-04-03T15:50:52;9.55;;;0.95;;
67508;SDS011;54354;44.724;11.284;2023-04-03T15:53:18;1.17;;;0.70;;
67508;SDS011;54354;44.724;11.284;2023-04-03T15:55:44;2.20;;;0.70;;
67508;SDS011;54354;44.724;11.284;2023-04-03T15:58:09;4.25;;;0.68;;
67508;SDS011;54354;44.724;11.284;2023-04-03T16:00:36;2.40;;;0.70;;
67508;SDS011;54354;44.724;11.284;2023-04-03T16:03:09;4.55;;;0.70;;
67508;SDS011;54354;44.724;11.284;2023-04-03T16:05:37;3.80;;;0.80;;
67508;SDS011;54354;44.724;11.284;2023-04-03T16:08:04;6.85;;;0.80;;
67508;SDS011;54354;44.724;11.284;2023-04-03T16:10:33;3.75;;;0.80;;
67508;SDS011;54354;44.724;11.284;2023-04-03T16:13:03;5.88;;;0.85;;
67508;SDS011;54354;44.724;11.284;2023-04-03T16:15:30;3.40;;;0.80;;
67508;SDS011;54354;44.724;11.284;2023-04-03T16:17:57;2.90;;;0.68;;
67508;SDS011;54354;44.724;11.284;2023-04-03T16:20:23;1.90;;;0.88;;
67508;SDS011;54354;44.724;11.284;2023-04-03T16:22:50;4.00;;;0.98;;
67508;SDS011;54354;44.724;11.284;2023-04-03T16:25:16;2.95;;;0.68;;
67508;SDS011;54354;44.724;11.284;2023-04-03T16:27:43;2.65;;;0.70;;
67508;SDS011;54354;44.724;11.284;2023-04-03T16:30:09;2.88;;;0.73;;
67508;SDS011;54354;44.724;11.284;2023-04-03T16:32:35;3.53;;;0.98;;